Time;durP1;ratioP1;P1;durP2;ratioP2;P2;SDS_P1;SDS_P2;PMS_P1;PMS_P2;Temp;Humidity;BMP_temperature;BMP_pressure;BME280_temperature;BME280_humidity;BME280_pressure;Samples;Min_cycle;Max_cycle;Signal;HPM_P1;HPM_P2
2022/04/19 00:01:35;;;;;;;6.93;2.83;;;24.10;34.60;;;;;;5057808;27;88524;-71
2022/04/19 00:04:04;;;;;;;3.43;2.97;;;24.10;34.70;;;;;;5057019;27;93346;-71
2022/04/19 00:06:32;;;;;;;3.70;2.40;;;24.10;34.70;;;;;;5061583;27;91564;-71
2022/04/19 00:09:00;;;;;;;4.80;3.30;;;24.10;34.70;;;;;;5051622;27;88573;-71
2022/04/19 00:11:30;;;;;;;6.00;3.13;;;24.10;34.80;;;;;;5047901;27;90447;-71
2022/04/19 00:14:00;;;;;;;4.20;2.23;;;24.10;34.80;;;;;;5057541;27;90212;-71
2022/04/19 00:16:28;;;;;;;4.17;2.57;;;24.00;34.80;;;;;;5038182;27;88894;-70
2022/04/19 00:18:56;;;;;;;3.77;2.83;;;24.10;34.90;;;;;;5043546;27;88258;-71
2022/04/19 00:21:24;;;;;;;3.77;2.60;;;24.00;34.80;;;;;;5057525;27;88422;-70
2022/04/19 00:23:53;;;;;;;5.93;3.23;;;24.00;34.90;;;;;;5048483;27;90253;-70
2022/04/19 00:26:21;;;;;;;4.13;2.33;;;24.00;34.90;;;;;;5058486;27;90096;-71
2022/04/19 00:28:51;;;;;;;3.40;2.40;;;24.00;35.00;;;;;;5055609;27;88385;-71
2022/04/19 00:31:19;;;;;;;3.47;2.60;;;24.00;35.00;;;;;;5046434;27;88467;-71
2022/04/19 00:33:49;;;;;;;3.33;2.33;;;24.00;35.00;;;;;;5047021;27;89560;-71
2022/04/19 00:36:18;;;;;;;2.57;2.33;;;24.00;35.00;;;;;;5058922;27;90139;-71
2022/04/19 00:38:47;;;;;;;3.00;2.67;;;24.00;35.00;;;;;;5050234;27;88552;-70
2022/04/19 00:41:17;;;;;;;5.80;2.63;;;23.90;35.00;;;;;;5048475;27;88494;-70
2022/04/19 00:43:45;;;;;;;4.60;2.63;;;24.00;35.10;;;;;;5040680;27;91475;-70
2022/04/19 00:46:14;;;;;;;5.27;2.60;;;23.90;35.00;;;;;;5058143;27;89533;-70
2022/04/19 00:48:43;;;;;;;3.33;2.70;;;23.90;35.10;;;;;;5044062;27;88402;-70
2022/04/19 00:51:11;;;;;;;5.10;2.70;;;23.90;35.10;;;;;;5051444;27;88604;-70
2022/04/19 00:53:39;;;;;;;3.00;2.70;;;24.00;35.20;;;;;;5044351;27;90705;-71
2022/04/19 00:56:08;;;;;;;4.00;2.83;;;23.90;35.20;;;;;;5043052;27;90061;-70
2022/04/19 00:58:36;;;;;;;3.37;2.57;;;23.90;35.20;;;;;;5049175;27;88439;-71
2022/04/19 01:01:04;;;;;;;3.77;2.03;;;23.90;35.20;;;;;;5042789;27;88554;-71
2022/04/19 01:03:34;;;;;;;3.67;2.17;;;23.90;35.30;;;;;;5047072;27;90517;-70
2022/04/19 01:06:03;;;;;;;2.53;2.20;;;23.90;35.30;;;;;;5042367;27;91916;-71
2022/04/19 01:08:31;;;;;;;4.37;2.53;;;23.90;35.30;;;;;;5056114;27;88470;-71
2022/04/19 01:13:48;;;;;;;3.00;2.13;;;23.80;35.30;;;;;;5041616;27;90580;-71
2022/04/19 01:16:16;;;;;;;2.70;2.23;;;23.80;35.30;;;;;;5036791;27;91048;-70
2022/04/19 01:18:46;;;;;;;3.00;2.17;;;23.80;35.30;;;;;;5057622;27;88412;-70
2022/04/19 01:21:14;;;;;;;4.63;2.40;;;23.80;35.40;;;;;;5049862;27;88572;-70
2022/04/19 01:23:43;;;;;;;3.50;2.37;;;23.80;35.40;;;;;;5060522;27;89784;-70
2022/04/19 01:26:12;;;;;;;3.03;2.30;;;23.80;35.50;;;;;;5040928;27;89884;-70
2022/04/19 01:28:39;;;;;;;8.60;2.10;;;23.80;35.50;;;;;;5044599;27;88758;-70
2022/04/19 01:31:09;;;;;;;2.83;2.10;;;23.70;35.50;;;;;;5048784;27;88565;-70
2022/04/19 01:33:37;;;;;;;3.30;2.20;;;23.70;35.50;;;;;;5060370;27;89526;-70
2022/04/19 01:36:08;;;;;;;3.20;2.50;;;23.70;35.50;;;;;;5043938;27;92032;-70
2022/04/19 01:38:36;;;;;;;3.90;2.53;;;23.70;35.60;;;;;;5049977;27;88379;-70
2022/04/19 01:41:08;;;;;;;3.47;2.40;;;23.70;35.60;;;;;;5048945;27;89322;-70
2022/04/19 01:43:36;;;;;;;4.53;2.53;;;23.60;36.20;;;;;;5049864;27;90768;-70
2022/04/19 01:46:04;;;;;;;4.33;2.17;;;23.60;35.60;;;;;;5051434;27;90500;-70
2022/04/19 01:48:33;;;;;;;4.97;2.47;;;23.60;35.60;;;;;;5052357;27;88307;-70
2022/04/19 01:51:01;;;;;;;3.47;2.33;;;23.60;35.60;;;;;;5042682;27;88468;-70
2022/04/19 01:53:29;;;;;;;3.97;2.27;;;23.60;35.70;;;;;;5052182;27;92874;-71
2022/04/19 01:55:57;;;;;;;3.13;2.30;;;23.60;35.70;;;;;;5042214;27;92860;-70
2022/04/19 01:58:26;;;;;;;2.40;2.20;;;23.60;35.70;;;;;;5045474;27;89406;-71
2022/04/19 02:00:54;;;;;;;3.40;2.00;;;23.60;35.70;;;;;;5053491;27;88715;-70
2022/04/19 02:03:22;;;;;;;3.43;2.23;;;23.60;35.70;;;;;;5041743;28;90530;-70
2022/04/19 02:05:50;;;;;;;3.07;2.17;;;23.60;35.80;;;;;;5051289;27;88454;-70
2022/04/19 02:08:18;;;;;;;3.40;2.47;;;23.60;35.80;;;;;;5056682;27;88705;-70
2022/04/19 02:10:47;;;;;;;3.77;2.30;;;23.50;35.70;;;;;;5042066;27;88211;-70
2022/04/19 02:13:15;;;;;;;3.03;2.20;;;23.60;35.90;;;;;;5038182;27;89485;-70
2022/04/19 02:15:46;;;;;;;2.30;2.03;;;23.60;35.90;;;;;;5059835;27;89998;-70
2022/04/19 02:18:14;;;;;;;3.77;2.10;;;23.50;35.80;;;;;;5035255;27;88553;-70
2022/04/19 02:20:44;;;;;;;2.23;2.03;;;23.50;35.80;;;;;;5041160;27;88639;-70
2022/04/19 02:23:13;;;;;;;2.73;1.90;;;23.50;35.90;;;;;;5041887;27;89681;-70
2022/04/19 02:25:42;;;;;;;2.43;2.00;;;23.50;36.50;;;;;;5042800;27;89381;-70
2022/04/19 02:28:10;;;;;;;2.87;2.07;;;23.50;36.00;;;;;;5058125;27;88418;-70
2022/04/19 02:30:38;;;;;;;2.37;1.97;;;23.50;36.00;;;;;;5042116;27;89194;-70
2022/04/19 02:33:08;;;;;;;2.50;2.20;;;23.50;36.00;;;;;;5054421;27;89656;-70
2022/04/19 02:35:37;;;;;;;2.43;2.20;;;23.40;35.90;;;;;;5055928;27;89216;-70
2022/04/19 02:38:05;;;;;;;3.77;2.40;;;23.40;35.90;;;;;;5041892;27;88438;-70
2022/04/19 02:40:33;;;;;;;3.20;1.93;;;23.40;35.90;;;;;;5058871;27;88530;-70
2022/04/19 02:43:01;;;;;;;2.97;2.37;;;23.40;36.00;;;;;;5045256;27;90661;-70
2022/04/19 02:45:29;;;;;;;2.80;1.67;;;23.40;36.00;;;;;;5051309;27;89947;-70
2022/04/19 02:48:03;;;;;;;2.17;1.83;;;23.40;36.10;;;;;;5060346;27;88336;-70
2022/04/19 02:50:40;;;;;;;2.10;1.77;;;23.30;36.00;;;;;;5030214;27;90677;-70
2022/04/19 02:53:08;;;;;;;2.30;2.10;;;23.40;36.10;;;;;;5058537;27;94158;-70
2022/04/19 02:55:36;;;;;;;2.17;1.57;;;23.30;36.10;;;;;;5041513;27;89857;-70
2022/04/19 02:58:07;;;;;;;1.90;1.80;;;23.40;36.10;;;;;;5054559;27;88308;-70
2022/04/19 03:00:35;;;;;;;2.17;1.70;;;23.40;36.10;;;;;;5050825;27;90511;-70
2022/04/19 03:03:03;;;;;;;1.90;1.63;;;23.40;36.10;;;;;;5045421;27;90635;-70
2022/04/19 03:05:38;;;;;;;1.73;1.63;;;23.40;36.10;;;;;;5053882;27;93208;-70
2022/04/19 03:08:06;;;;;;;2.43;1.83;;;23.30;36.10;;;;;;5044783;27;88613;-69
2022/04/19 03:10:34;;;;;;;5.10;1.57;;;23.40;36.20;;;;;;5051628;27;88658;-70
2022/04/19 03:13:02;;;;;;;2.57;1.77;;;23.30;36.10;;;;;;5047667;27;90601;-70
2022/04/19 03:15:31;;;;;;;2.20;1.50;;;23.30;36.20;;;;;;5059116;27;89482;-70
2022/04/19 03:17:59;;;;;;;2.63;1.60;;;23.30;36.20;;;;;;5051651;27;88456;-70
2022/04/19 03:20:27;;;;;;;2.23;1.60;;;23.30;36.30;;;;;;5026922;27;88918;-70
2022/04/19 03:28:41;;;;;;;1.87;1.47;;;23.30;36.40;;;;;;5022911;27;88439;-69
2022/04/19 03:31:09;;;;;;;2.00;1.30;;;23.30;36.40;;;;;;5039381;27;88530;-70
2022/04/19 03:33:37;;;;;;;1.50;1.27;;;23.30;37.10;;;;;;5043421;27;90753;-70
2022/04/19 03:36:08;;;;;;;2.30;1.60;;;23.20;36.50;;;;;;5045323;27;89868;-69
2022/04/19 03:38:37;;;;;;;1.60;1.30;;;23.30;36.60;;;;;;5043162;27;88830;-70
2022/04/19 03:41:05;;;;;;;4.17;1.40;;;23.20;36.60;;;;;;5051729;27;88533;-70
2022/04/19 03:43:33;;;;;;;1.43;1.30;;;23.20;36.60;;;;;;5055089;27;89243;-70
2022/04/19 03:46:01;;;;;;;2.30;1.30;;;23.20;36.70;;;;;;5043839;27;92412;-69
2022/04/19 03:48:29;;;;;;;1.43;1.30;;;23.20;36.70;;;;;;5059670;27;88521;-70
2022/04/19 03:50:57;;;;;;;1.83;1.60;;;23.20;36.70;;;;;;5054352;27;88467;-69
2022/04/19 03:53:25;;;;;;;2.77;1.50;;;23.20;36.80;;;;;;5060699;27;92053;-70
2022/04/19 03:55:54;;;;;;;1.50;1.40;;;23.20;36.80;;;;;;5062677;27;89939;-70
2022/04/19 03:58:22;;;;;;;1.67;1.43;;;23.20;36.80;;;;;;5056666;27;88267;-70
2022/04/19 04:00:50;;;;;;;3.67;1.60;;;23.10;36.70;;;;;;5045055;27;88306;-71
2022/04/19 04:03:18;;;;;;;3.07;1.60;;;23.20;36.80;;;;;;5062162;27;89324;-70
2022/04/19 04:05:46;;;;;;;2.70;1.43;;;23.20;36.80;;;;;;5063347;27;89480;-70
2022/04/19 04:08:14;;;;;;;1.50;1.30;;;23.20;36.80;;;;;;5049235;27;88814;-70
2022/04/19 04:10:42;;;;;;;2.07;1.50;;;23.10;36.70;;;;;;5049825;27;88454;-70
2022/04/19 04:13:12;;;;;;;1.73;1.30;;;23.10;36.70;;;;;;5050210;27;93709;-70
2022/04/19 04:15:40;;;;;;;1.83;1.50;;;23.20;36.90;;;;;;5043434;28;92837;-70
2022/04/19 04:18:09;;;;;;;2.10;1.73;;;23.20;36.90;;;;;;5045108;27;88341;-70
2022/04/19 04:20:37;;;;;;;2.23;1.57;;;23.20;36.90;;;;;;5060533;27;88206;-70
2022/04/19 04:23:05;;;;;;;3.07;1.90;;;23.20;36.90;;;;;;5044192;27;91086;-70
2022/04/19 04:25:33;;;;;;;3.23;1.53;;;23.10;36.90;;;;;;5042996;27;90477;-70
2022/04/19 04:28:01;;;;;;;2.73;1.70;;;23.10;36.90;;;;;;5043931;27;88355;-70
2022/04/19 04:30:30;;;;;;;2.53;1.77;;;23.10;36.90;;;;;;5044436;27;88442;-69
2022/04/19 04:32:58;;;;;;;2.50;1.60;;;23.10;37.00;;;;;;5050791;27;89689;-70
2022/04/19 04:35:26;;;;;;;2.60;2.00;;;23.10;37.00;;;;;;5062113;27;89963;-69
2022/04/19 04:37:54;;;;;;;2.13;1.60;;;23.10;37.00;;;;;;5047816;27;88474;-69
2022/04/19 04:40:23;;;;;;;2.23;1.70;;;23.10;37.10;;;;;;5050776;27;88505;-70
2022/04/19 04:42:51;;;;;;;1.80;1.50;;;23.10;37.10;;;;;;5050903;27;91149;-71
2022/04/19 04:45:19;;;;;;;1.67;1.47;;;23.10;37.10;;;;;;5055840;27;92788;-70
2022/04/19 04:50:33;;;;;;;2.33;1.90;;;23.10;37.10;;;;;;5062919;27;88576;-70
2022/04/19 04:53:01;;;;;;;1.93;1.63;;;23.10;37.10;;;;;;5050151;27;91512;-71
2022/04/19 04:55:29;;;;;;;1.80;1.50;;;23.00;37.10;;;;;;5043947;27;91853;-70
2022/04/19 04:58:01;;;;;;;5.77;2.10;;;23.00;37.10;;;;;;5051881;27;88458;-70
2022/04/19 05:00:29;;;;;;;3.73;2.40;;;23.00;37.10;;;;;;5042215;27;88496;-67
2022/04/19 05:02:58;;;;;;;3.87;1.93;;;23.00;37.10;;;;;;5043629;27;93533;-67
2022/04/19 05:05:26;;;;;;;2.60;1.90;;;23.00;37.10;;;;;;5042819;27;90059;-67
2022/04/19 05:07:54;;;;;;;3.10;1.60;;;23.10;37.20;;;;;;5046822;27;90395;-67
2022/04/19 05:10:22;;;;;;;1.97;1.70;;;23.00;37.10;;;;;;5046068;27;88713;-67
2022/04/19 05:12:50;;;;;;;4.50;2.10;;;23.10;37.30;;;;;;5052622;27;91845;-67
2022/04/19 05:15:19;;;;;;;2.27;2.03;;;23.10;37.30;;;;;;5061687;27;89127;-66
2022/04/19 05:17:47;;;;;;;2.27;1.80;;;23.10;37.40;;;;;;5056159;27;88528;-67
2022/04/19 05:20:17;;;;;;;9.03;2.70;;;23.20;37.50;;;;;;5057057;27;88368;-67
2022/04/19 05:22:45;;;;;;;3.57;2.43;;;23.20;37.70;;;;;;5046019;27;91139;-67
2022/04/19 05:25:13;;;;;;;2.97;1.93;;;23.20;37.80;;;;;;5050563;27;88837;-67
2022/04/19 05:27:41;;;;;;;6.43;1.70;;;23.30;38.70;;;;;;5047842;27;88539;-67
2022/04/19 05:30:10;;;;;;;3.60;1.80;;;23.30;38.20;;;;;;5057504;27;88636;-67
2022/04/19 05:32:38;;;;;;;3.03;1.80;;;23.30;38.30;;;;;;5048917;27;93490;-67
2022/04/19 05:35:08;;;;;;;5.03;2.30;;;23.30;38.40;;;;;;5042166;27;89188;-67
2022/04/19 05:37:38;;;;;;;2.67;1.80;;;23.30;38.50;;;;;;5054198;27;90217;-67
2022/04/19 05:40:07;;;;;;;2.57;2.00;;;23.30;38.60;;;;;;5044693;27;88869;-67
2022/04/19 05:42:35;;;;;;;1.97;1.77;;;23.30;38.70;;;;;;5048938;27;89525;-67
2022/04/19 05:45:03;;;;;;;2.00;1.80;;;23.40;38.80;;;;;;5042487;27;90115;-68
2022/04/19 05:47:34;;;;;;;3.87;2.20;;;23.40;38.80;;;;;;5049823;27;88495;-67
2022/04/19 05:50:05;;;;;;;2.10;1.90;;;23.40;38.80;;;;;;5061934;27;88488;-67
2022/04/19 05:52:34;;;;;;;4.00;2.37;;;23.40;38.90;;;;;;5047633;27;90686;-67
2022/04/19 05:55:03;;;;;;;5.27;2.73;;;23.40;38.90;;;;;;5050119;27;89424;-67
2022/04/19 05:57:31;;;;;;;2.23;1.70;;;23.40;38.90;;;;;;5040944;27;88978;-67
2022/04/19 05:59:59;;;;;;;2.83;2.23;;;23.40;38.90;;;;;;5043418;27;88608;-67
2022/04/19 06:05:13;;;;;;;6.20;2.43;;;23.40;39.00;;;;;;5040625;27;88983;-69
2022/04/19 06:07:43;;;;;;;4.07;2.53;;;23.40;39.00;;;;;;5043089;27;88316;-68
2022/04/19 06:10:14;;;;;;;2.60;2.33;;;23.40;39.10;;;;;;5030401;27;88629;-67
2022/04/19 06:12:42;;;;;;;2.33;1.83;;;23.40;39.10;;;;;;5051495;27;93574;-67
2022/04/19 06:15:11;;;;;;;2.43;2.13;;;23.50;39.90;;;;;;5049093;27;90356;-67
2022/04/19 06:17:40;;;;;;;2.80;2.30;;;23.40;39.10;;;;;;5041389;27;88670;-67
2022/04/19 06:20:09;;;;;;;8.83;2.23;;;23.50;39.90;;;;;;5048252;27;88743;-67
2022/04/19 06:22:38;;;;;;;2.57;2.17;;;23.50;39.20;;;;;;5050615;27;91032;-67
2022/04/19 06:25:07;;;;;;;2.43;2.20;;;23.50;39.20;;;;;;5052508;27;89784;-67
2022/04/19 06:27:37;;;;;;;2.33;2.00;;;23.50;39.20;;;;;;5050840;27;88367;-67
2022/04/19 06:30:06;;;;;;;2.63;2.10;;;23.50;39.20;;;;;;5033034;27;89841;-67
2022/04/19 06:32:34;;;;;;;3.60;2.10;;;23.50;39.20;;;;;;5031897;27;88984;-68
2022/04/19 06:35:03;;;;;;;3.20;2.30;;;23.50;39.10;;;;;;5040119;28;90146;-68
2022/04/19 06:37:31;;;;;;;2.90;2.10;;;23.50;39.10;;;;;;5040382;27;88583;-68
2022/04/19 06:40:06;;;;;;;4.03;2.27;;;23.50;39.10;;;;;;5029830;27;88430;-67
2022/04/19 06:42:35;;;;;;;5.77;2.07;;;23.60;39.20;;;;;;5025520;28;90595;-67
2022/04/19 06:45:05;;;;;;;2.43;2.10;;;23.60;39.20;;;;;;5040032;28;89608;-68
2022/04/19 06:47:34;;;;;;;2.27;1.70;;;23.60;39.20;;;;;;5042765;27;88354;-67
2022/04/19 06:50:05;;;;;;;3.13;1.97;;;23.60;39.20;;;;;;5041233;27;89040;-68
2022/04/19 06:52:34;;;;;;;2.97;2.00;;;23.60;39.20;;;;;;5046775;27;90195;-69
2022/04/19 06:55:03;;;;;;;4.80;2.50;;;23.60;39.10;;;;;;5058394;27;89849;-68
2022/04/19 06:57:38;;;;;;;6.70;2.60;;;23.60;39.00;;;;;;5061021;27;88474;-69
2022/04/19 07:00:09;;;;;;;4.93;3.13;;;23.60;38.80;;;;;;5063871;27;88564;-68
2022/04/19 07:02:37;;;;;;;4.37;2.60;;;23.60;38.70;;;;;;5049841;27;89343;-68
2022/04/19 07:05:05;;;;;;;3.60;2.80;;;23.50;38.50;;;;;;5044630;28;90139;-68
2022/04/19 07:07:33;;;;;;;5.13;2.87;;;23.50;38.40;;;;;;5044093;27;88406;-68
2022/04/19 07:10:01;;;;;;;8.07;2.87;;;23.50;38.40;;;;;;5044439;27;88541;-68
2022/04/19 07:12:29;;;;;;;7.37;2.60;;;23.50;38.40;;;;;;5044581;28;90870;-68
2022/04/19 07:14:58;;;;;;;5.67;2.73;;;23.50;38.50;;;;;;5043184;27;89942;-69
2022/04/19 07:17:27;;;;;;;3.57;2.73;;;23.50;38.60;;;;;;5043964;28;88555;-69
2022/04/19 07:28:16;;;;;;;4.07;2.40;;;23.30;38.50;;;;;;5043862;27;88347;-66
2022/04/19 07:30:44;;;;;;;3.77;2.60;;;23.30;38.50;;;;;;5043711;27;88711;-70
2022/04/19 07:33:13;;;;;;;9.60;3.00;;;23.30;38.50;;;;;;5044136;28;88816;-66
2022/04/19 07:35:41;;;;;;;6.43;2.93;;;23.30;38.40;;;;;;5042740;28;90456;-68
2022/04/19 07:38:09;;;;;;;9.20;3.40;;;23.30;38.40;;;;;;5044121;28;88204;-67
2022/04/19 07:40:37;;;;;;;8.50;4.70;;;23.40;38.50;;;;;;5043778;28;88475;-66
2022/04/19 07:43:06;;;;;;;10.07;5.17;;;23.50;38.50;;;;;;5042123;27;93647;-66
2022/04/19 07:45:34;;;;;;;5.80;4.23;;;23.50;38.30;;;;;;5043118;28;92613;-66
2022/04/19 07:48:04;;;;;;;8.73;4.23;;;23.50;38.10;;;;;;5044110;28;88318;-66
2022/04/19 07:50:34;;;;;;;5.77;3.80;;;23.50;37.90;;;;;;5043653;28;88379;-66
2022/04/19 07:53:02;;;;;;;6.27;3.77;;;23.50;37.60;;;;;;5036427;27;89612;-67
2022/04/19 07:55:30;;;;;;;7.80;3.40;;;23.50;37.40;;;;;;5040286;28;88802;-66
2022/04/19 07:57:58;;;;;;;7.33;3.83;;;23.50;37.90;;;;;;5044071;27;88419;-67
2022/04/19 08:00:27;;;;;;;8.27;3.77;;;23.50;37.10;;;;;;5043808;28;88407;-66
2022/04/19 08:02:55;;;;;;;12.20;4.10;;;23.50;36.90;;;;;;5043896;28;93193;-67
2022/04/19 08:05:24;;;;;;;4.80;2.87;;;23.50;36.70;;;;;;5043306;28;89989;-66
2022/04/19 08:07:53;;;;;;;8.10;3.17;;;23.40;37.10;;;;;;5031932;28;88370;-68
2022/04/19 08:10:21;;;;;;;6.30;3.67;;;23.40;36.20;;;;;;5022782;28;88441;-67
2022/04/19 08:12:49;;;;;;;4.73;3.13;;;23.30;36.00;;;;;;5039996;28;90733;-68
2022/04/19 08:15:18;;;;;;;8.23;3.67;;;23.30;35.90;;;;;;5043408;28;89532;-68
2022/04/19 08:17:46;;;;;;;6.97;3.80;;;23.20;35.60;;;;;;5043658;28;88348;-68
2022/04/19 08:20:14;;;;;;;5.60;3.43;;;23.10;35.40;;;;;;5043617;28;88495;-68
2022/04/19 08:22:42;;;;;;;2.93;2.30;;;23.00;35.20;;;;;;5042802;27;89964;-68
2022/04/19 08:25:11;;;;;;;4.03;3.03;;;22.90;35.10;;;;;;5042593;28;90122;-68
2022/04/19 08:27:42;;;;;;;4.13;3.07;;;22.90;35.10;;;;;;5043368;28;88404;-68
2022/04/19 08:30:11;;;;;;;4.83;3.03;;;22.70;34.60;;;;;;5043028;28;88614;-68
2022/04/19 08:32:38;;;;;;;4.47;3.20;;;22.60;34.60;;;;;;5040407;27;90831;-68
2022/04/19 08:35:08;;;;;;;3.63;2.50;;;22.50;34.50;;;;;;5022101;28;89482;-68
2022/04/19 08:37:36;;;;;;;2.93;2.10;;;22.40;34.40;;;;;;5022400;28;88520;-68
2022/04/19 08:40:04;;;;;;;5.33;2.33;;;22.30;34.30;;;;;;5035899;28;88452;-68
2022/04/19 08:42:35;;;;;;;3.57;2.53;;;22.20;34.20;;;;;;5042400;28;90628;-68
2022/04/19 08:45:03;;;;;;;4.57;2.40;;;22.20;34.20;;;;;;5042639;28;90213;-68
2022/04/19 08:47:32;;;;;;;2.43;1.73;;;22.20;34.10;;;;;;5042752;28;88562;-68
2022/04/19 08:50:01;;;;;;;3.87;2.57;;;22.20;34.10;;;;;;5041554;27;88604;-68
2022/04/19 08:52:30;;;;;;;2.47;2.23;;;22.30;34.20;;;;;;5041788;28;90781;-68
2022/04/19 08:57:45;;;;;;;2.57;2.03;;;22.30;33.90;;;;;;5042222;28;88374;-68
2022/04/19 09:00:15;;;;;;;2.87;2.13;;;22.30;34.00;;;;;;5042477;27;88138;-68
2022/04/19 09:02:43;;;;;;;2.80;1.57;;;22.10;33.80;;;;;;5042695;28;93709;-68
2022/04/19 09:05:15;;;;;;;1.83;1.50;;;22.10;34.40;;;;;;5041523;28;90323;-68
2022/04/19 09:07:43;;;;;;;2.87;1.87;;;22.10;33.90;;;;;;5042644;28;88536;-68
2022/04/19 09:10:15;;;;;;;2.93;1.60;;;22.10;33.90;;;;;;5042185;27;88620;-68
2022/04/19 09:13:01;;;;;;;2.40;1.97;;;22.10;33.80;;;;;;5042310;28;90655;-68
2022/04/19 09:15:32;;;;;;;3.23;2.20;;;22.00;33.70;;;;;;5041557;28;90248;-68
2022/04/19 09:18:01;;;;;;;3.80;2.10;;;22.00;33.80;;;;;;5042328;27;88375;-69
2022/04/19 09:20:31;;;;;;;3.33;1.83;;;21.90;33.70;;;;;;5040840;27;88652;-68
2022/04/19 09:23:05;;;;;;;2.10;1.90;;;22.00;33.80;;;;;;5040358;27;90422;-68
2022/04/19 09:25:33;;;;;;;4.57;2.30;;;21.90;33.60;;;;;;5041398;28;89677;-68
2022/04/19 09:28:05;;;;;;;3.20;1.80;;;21.90;33.60;;;;;;5042369;28;88558;-68
2022/04/19 09:30:34;;;;;;;1.90;1.73;;;21.80;33.50;;;;;;5041794;27;88650;-67
2022/04/19 09:33:10;;;;;;;3.37;1.83;;;21.90;33.60;;;;;;5040694;27;91453;-68
2022/04/19 09:35:39;;;;;;;3.80;1.97;;;22.00;33.70;;;;;;5040870;28;91570;-68
2022/04/19 09:38:08;;;;;;;2.63;1.93;;;22.00;33.70;;;;;;5042306;28;88446;-68
2022/04/19 09:40:37;;;;;;;3.07;2.30;;;22.10;33.70;;;;;;5041916;27;88613;-68
2022/04/19 09:43:11;;;;;;;4.43;2.23;;;22.00;33.60;;;;;;5042174;28;89346;-68
2022/04/19 09:45:51;;;;;;;3.67;2.30;;;22.00;33.70;;;;;;5040517;28;88826;-68
2022/04/19 09:48:19;;;;;;;2.90;2.17;;;22.00;33.70;;;;;;5041635;28;88649;-68
2022/04/19 09:50:58;;;;;;;2.87;1.80;;;22.10;33.70;;;;;;5036799;27;88719;-68
2022/04/19 09:53:28;;;;;;;4.30;2.60;;;22.10;33.70;;;;;;5041176;28;90578;-68
2022/04/19 09:55:57;;;;;;;2.80;2.07;;;22.20;33.70;;;;;;5040669;28;90094;-68
2022/04/19 09:58:27;;;;;;;4.17;1.90;;;22.10;33.50;;;;;;5042368;28;88277;-68
2022/04/19 10:00:55;;;;;;;2.27;1.60;;;22.00;33.40;;;;;;5041640;28;88577;-68
2022/04/19 10:08:54;;;;;;;5.20;2.33;;;21.90;33.00;;;;;;5035508;28;88381;-68
2022/04/19 10:11:22;;;;;;;2.00;1.50;;;21.80;33.00;;;;;;5031216;28;88526;-68
2022/04/19 10:13:52;;;;;;;2.43;1.40;;;21.80;33.00;;;;;;5041503;28;90607;-68
2022/04/19 10:16:20;;;;;;;2.80;1.60;;;22.00;33.10;;;;;;5039853;28;89421;-67
2022/04/19 10:18:48;;;;;;;3.93;2.00;;;22.10;33.10;;;;;;5041284;28;88308;-67
2022/04/19 10:21:17;;;;;;;2.73;2.03;;;22.10;33.00;;;;;;5041102;27;88553;-68
2022/04/19 10:23:46;;;;;;;4.67;2.20;;;22.00;33.00;;;;;;5040300;27;89640;-68
2022/04/19 10:26:15;;;;;;;3.43;1.80;;;22.00;32.90;;;;;;5041051;27;89372;-68
2022/04/19 10:28:45;;;;;;;6.00;2.40;;;21.90;32.80;;;;;;5041289;28;88438;-68
2022/04/19 10:31:14;;;;;;;3.17;2.30;;;21.90;32.80;;;;;;5040558;27;88659;-68
2022/04/19 10:33:48;;;;;;;4.03;1.90;;;21.80;32.60;;;;;;5040690;28;89104;-68
2022/04/19 10:36:17;;;;;;;3.90;2.30;;;21.80;32.60;;;;;;5040783;28;89799;-68
2022/04/19 10:38:46;;;;;;;5.53;2.53;;;21.80;32.60;;;;;;5040464;27;88306;-68
2022/04/19 10:41:48;;;;;;;3.03;2.00;;;21.80;32.50;;;;;;5040530;28;88410;-68
2022/04/19 10:44:28;;;;;;;3.73;2.73;;;21.70;32.50;;;;;;5040016;28;89966;-67
2022/04/19 10:47:23;;;;;;;4.60;2.50;;;21.80;33.20;;;;;;5041817;28;91514;-68
2022/04/19 10:49:55;;;;;;;5.90;2.40;;;21.80;32.60;;;;;;5026093;27;88453;-66
2022/04/19 10:52:45;;;;;;;4.67;2.37;;;21.90;32.70;;;;;;5040611;27;88691;-68
2022/04/19 10:55:24;;;;;;;3.90;2.50;;;21.90;32.70;;;;;;5039281;27;89488;-69
2022/04/19 10:58:12;;;;;;;4.30;2.00;;;22.00;32.60;;;;;;5023623;28;90524;-67
2022/04/19 11:00:53;;;;;;;4.50;2.30;;;22.00;33.20;;;;;;5041089;27;88471;-66
2022/04/19 11:03:57;;;;;;;2.80;1.90;;;21.90;32.60;;;;;;5040768;27;88431;-66
2022/04/19 11:06:36;;;;;;;3.43;2.47;;;21.90;32.70;;;;;;5025438;27;90162;-66
2022/04/19 11:09:19;;;;;;;4.30;2.23;;;22.10;32.90;;;;;;5039918;28;92958;-66
2022/04/19 11:11:49;;;;;;;2.90;2.00;;;22.10;32.80;;;;;;5039750;28;88465;-66
2022/04/19 11:14:44;;;;;;;3.37;2.27;;;22.20;32.80;;;;;;5040490;28;88564;-66
2022/04/19 11:17:22;;;;;;;3.97;2.23;;;22.20;32.70;;;;;;5040071;28;90641;-69
2022/04/19 11:20:08;;;;;;;5.10;2.50;;;22.20;32.50;;;;;;5039775;28;90053;-66
2022/04/19 11:22:47;;;;;;;3.77;1.90;;;22.20;32.40;;;;;;5040321;27;88418;-67
2022/04/19 11:25:15;;;;;;;2.13;1.60;;;22.20;32.40;;;;;;5040023;28;88501;-67
2022/04/19 11:28:17;;;;;;;3.13;1.40;;;22.30;32.40;;;;;;5040599;28;90695;-66
2022/04/19 11:30:46;;;;;;;3.60;1.70;;;22.40;32.50;;;;;;5038573;27;89572;-66
2022/04/19 11:33:23;;;;;;;3.53;1.97;;;22.40;32.40;;;;;;5039836;28;88705;-66
2022/04/19 11:36:01;;;;;;;4.57;2.57;;;22.50;32.40;;;;;;5037657;28;88604;-68
2022/04/19 11:38:29;;;;;;;4.43;2.40;;;22.50;32.20;;;;;;5030138;28;90719;-66
2022/04/19 11:46:48;;;;;;;3.90;2.23;;;22.50;31.90;;;;;;5041226;27;88649;-66
2022/04/19 11:49:29;;;;;;;2.27;1.87;;;22.50;31.80;;;;;;5043371;28;90531;-67
2022/04/19 11:51:59;;;;;;;2.63;1.83;;;22.50;31.80;;;;;;5043015;28;89370;-67
2022/04/19 11:54:28;;;;;;;3.77;1.73;;;22.60;31.90;;;;;;5043587;27;88275;-67
2022/04/19 11:56:57;;;;;;;4.40;2.33;;;22.50;31.70;;;;;;5043385;28;88638;-66
2022/04/19 11:59:29;;;;;;;5.33;2.80;;;22.50;31.70;;;;;;5043589;27;90886;-66
2022/04/19 12:01:57;;;;;;;3.70;2.80;;;22.40;31.60;;;;;;5043194;27;88803;-66
2022/04/19 12:04:26;;;;;;;3.83;2.47;;;22.30;31.60;;;;;;5044190;28;88377;-66
2022/04/19 12:06:54;;;;;;;3.50;2.37;;;22.30;31.60;;;;;;5043583;27;88635;-66
2022/04/19 12:09:23;;;;;;;4.87;2.70;;;22.30;31.60;;;;;;5043400;28;92540;-67
2022/04/19 12:11:51;;;;;;;4.60;2.57;;;22.30;31.60;;;;;;5043482;28;88971;-67
2022/04/19 12:14:26;;;;;;;5.47;2.40;;;22.40;31.60;;;;;;5043923;27;88297;-67
2022/04/19 12:16:58;;;;;;;4.70;2.60;;;22.40;31.70;;;;;;5043429;27;88653;-68
2022/04/19 12:19:38;;;;;;;4.07;2.60;;;22.50;31.70;;;;;;5042734;27;90038;-67
2022/04/19 12:22:22;;;;;;;4.33;2.63;;;22.50;31.60;;;;;;5036153;28;92388;-68
2022/04/19 12:24:53;;;;;;;5.07;2.50;;;22.50;31.50;;;;;;5039159;28;88408;-67
2022/04/19 12:27:25;;;;;;;3.43;2.17;;;22.50;31.40;;;;;;5042214;28;88538;-67
2022/04/19 12:29:59;;;;;;;3.33;1.97;;;22.50;31.30;;;;;;5043359;28;90233;-67
2022/04/19 12:32:27;;;;;;;4.90;2.83;;;22.50;31.20;;;;;;5042974;28;90127;-67
2022/04/19 12:35:08;;;;;;;3.47;2.10;;;22.40;31.10;;;;;;5042748;28;88501;-67
2022/04/19 12:37:36;;;;;;;2.77;2.07;;;22.50;31.10;;;;;;5043059;28;88586;-68
2022/04/19 12:40:07;;;;;;;10.00;2.47;;;22.60;31.20;;;;;;5042805;27;90777;-67
2022/04/19 12:42:51;;;;;;;8.23;2.47;;;22.60;31.10;;;;;;5042021;27;88953;-67
2022/04/19 12:45:19;;;;;;;3.80;1.90;;;22.60;31.10;;;;;;5042198;28;88493;-68
2022/04/19 12:47:47;;;;;;;4.27;2.13;;;22.70;31.20;;;;;;5042624;28;88419;-67
2022/04/19 12:50:16;;;;;;;4.03;1.97;;;22.80;31.20;;;;;;5042436;28;90038;-68
2022/04/19 12:52:44;;;;;;;5.40;2.53;;;22.70;31.10;;;;;;5042044;27;89179;-67
2022/04/19 12:55:14;;;;;;;4.10;2.13;;;22.80;31.10;;;;;;5042757;28;89701;-68
2022/04/19 12:57:45;;;;;;;4.23;2.17;;;22.80;31.10;;;;;;5041765;27;88617;-68
2022/04/19 13:00:13;;;;;;;4.13;1.80;;;22.80;31.00;;;;;;5039646;28;90145;-67
2022/04/19 13:02:42;;;;;;;3.23;2.20;;;22.90;31.00;;;;;;5042281;28;91903;-67
2022/04/19 13:05:10;;;;;;;4.33;2.13;;;22.80;30.60;;;;;;5042790;27;88434;-67
2022/04/19 13:13:10;;;;;;;1.57;1.43;;;22.70;30.20;;;;;;5041671;27;88964;-67
2022/04/19 13:15:39;;;;;;;2.47;1.90;;;22.70;30.20;;;;;;5042257;28;88562;-70
2022/04/19 13:18:08;;;;;;;5.37;2.67;;;22.80;30.10;;;;;;5042164;28;88632;-68
2022/04/19 13:20:36;;;;;;;2.17;1.50;;;22.80;30.00;;;;;;5041424;28;93610;-68
2022/04/19 13:23:05;;;;;;;3.87;2.00;;;22.80;30.00;;;;;;5042473;28;88478;-68
2022/04/19 13:25:35;;;;;;;4.70;2.30;;;22.80;30.00;;;;;;5042348;27;88442;-68
2022/04/19 13:28:03;;;;;;;4.97;2.07;;;22.80;29.90;;;;;;5041784;27;88699;-68
2022/04/19 13:30:31;;;;;;;5.20;2.60;;;22.90;29.90;;;;;;5041287;28;90893;-67
2022/04/19 13:32:59;;;;;;;4.33;2.53;;;23.00;30.00;;;;;;5041705;27;88912;-67
2022/04/19 13:35:28;;;;;;;2.73;2.07;;;23.00;30.00;;;;;;5041466;27;88474;-68
2022/04/19 13:40:43;;;;;;;3.23;1.93;;;23.10;30.00;;;;;;5042015;28;93869;-68
2022/04/19 13:43:11;;;;;;;2.90;2.10;;;23.10;30.50;;;;;;5040987;27;89078;-68
2022/04/19 13:45:39;;;;;;;3.87;2.13;;;23.10;30.00;;;;;;5041212;28;88542;-67